Currently 62°F in San Diego (City Heights), California, USA
62°F
62°F / 62°F
calm
0.00"
Monday, May 29, 2017 2:44 AM PDT

San Diego (City Heights), California Weather Summary
Last 36 Hours

Temperature Winds Hourly Humidity Dewpoint
Time Report Norm Report Norm Max Gusts Precip. Rpt. Norm Rpt. Norm Pressure
1Mon 02:44 AM  61.7°F  61°F  calm  1 mph  3 mph  0.00"  85%  84%  57°F  56°F  N/A
3Mon 02:00 AM  61.5°F  61°F  calm  1 mph  6 mph  0.00"  85%  84%  57°F  56°F  N/A
Mon 01:00 AM  62.0°F  61°F  calm  1 mph  5 mph  0.00"  84%  83%  57°F  56°F  N/A
2Mon 12:24 AM  62.1°F  61°F  calm  1 mph  none  ----  84%  83%  57°F  56°F  N/A
Mon 12:00 AM  62.0°F  61°F  1 mph SE  1 mph  4 mph  0.00"  84%  83%  57°F  56°F  N/A
Sun 11:00 PM  62.0°F  61°F  calm  1 mph  4 mph  0.00"  84%  83%  57°F  56°F  N/A
Sun 10:00 PM  61.5°F  62°F  calm  1 mph  7 mph  0.00"  85%  82%  57°F  56°F  N/A
Sun 09:00 PM  61.4°F  62°F  3 mph S  1 mph  8 mph  0.00"  86%  81%  57°F  56°F  N/A
Sun 08:00 PM  61.8°F  63°F  4 mph SW  2 mph  8 mph  0.00"  84%  78%  57°F  56°F  N/A
Sun 07:00 PM  64.9°F  65°F  3 mph SW  2 mph  9 mph  0.00"  76%  73%  57°F  56°F  N/A
Sun 06:00 PM  67.5°F  67°F  4 mph S  3 mph  9 mph  0.00"  70%  68%  57°F  56°F  N/A
Sun 05:00 PM  68.5°F  69°F  3 mph SW  4 mph  9 mph  0.00"  67%  65%  57°F  56°F  N/A
Sun 04:00 PM  69.1°F  70°F  5 mph SW  4 mph  11 mph  0.00"  67%  62%  57°F  56°F  N/A
Sun 03:00 PM  68.6°F  71°F  4 mph SW  4 mph  13 mph  0.00"  68%  62%  57°F  56°F  N/A
Sun 02:00 PM  69.3°F  70°F  4 mph SW  4 mph  14 mph  0.00"  65%  62%  57°F  56°F  N/A
Sun 01:00 PM  70.5°F  70°F  5 mph SW  4 mph  15 mph  0.00"  64%  64%  57°F  56°F  N/A
Sun 12:00 PM  69.9°F  69°F  4 mph W  4 mph  12 mph  0.00"  64%  65%  57°F  57°F  N/A
Sun 11:00 AM  69.3°F  68°F  5 mph W  4 mph  9 mph  0.00"  65%  67%  57°F  57°F  N/A
Sun 10:00 AM  66.1°F  67°F  3 mph SW  3 mph  9 mph  0.00"  72%  70%  57°F  56°F  N/A
Sun 09:00 AM  64.9°F  64°F  4 mph SW  2 mph  8 mph  0.00"  75%  75%  57°F  56°F  N/A
Sun 08:00 AM  61.6°F  62°F  2 mph W  1 mph  7 mph  0.00"  83%  81%  56°F  56°F  N/A
Sun 07:00 AM  59.4°F  61°F  calm  1 mph  none  0.00"  85%  84%  55°F  56°F  N/A
Sun 06:00 AM  56.1°F  60°F  calm  1 mph  none  0.00"  87%  85%  52°F  56°F  N/A
Sun 05:00 AM  56.7°F  60°F  calm  1 mph  none  0.00"  86%  85%  52°F  55°F  N/A
Sun 04:00 AM  57.1°F  60°F  calm  1 mph  none  0.00"  85%  84%  52°F  55°F  N/A
Sun 03:00 AM  57.7°F  61°F  calm  1 mph  none  0.00"  84%  84%  53°F  55°F  N/A
Sun 02:00 AM  58.3°F  61°F  calm  1 mph  none  0.00"  84%  84%  53°F  55°F  N/A
Sun 01:00 AM  58.9°F  61°F  calm  1 mph  none  0.00"  83%  83%  54°F  55°F  N/A
Sun 12:00 AM  59.5°F  61°F  calm  1 mph  5 mph  0.00"  82%  83%  54°F  56°F  N/A
Sat 11:00 PM  59.9°F  61°F  calm  1 mph  5 mph  0.00"  82%  82%  54°F  56°F  N/A
Sat 10:00 PM  60.2°F  61°F  calm  1 mph  6 mph  0.00"  81%  82%  54°F  56°F  N/A
Sat 09:00 PM  60.8°F  62°F  3 mph W  1 mph  7 mph  0.00"  79%  81%  54°F  56°F  N/A
Sat 08:00 PM  62.4°F  63°F  4 mph W  2 mph  7 mph  0.00"  73%  78%  53°F  56°F  N/A
Sat 07:00 PM  65.5°F  65°F  4 mph W  2 mph  11 mph  0.00"  65%  72%  53°F  56°F  N/A
Sat 06:00 PM  67.4°F  67°F  4 mph W  3 mph  11 mph  0.00"  61%  68%  53°F  56°F  N/A
Sat 05:00 PM  68.7°F  69°F  4 mph W  4 mph  13 mph  0.00"  58%  65%  53°F  56°F  N/A
Sat 04:00 PM  68.2°F  70°F  6 mph SW  4 mph  14 mph  0.00"  61%  62%  54°F  56°F  N/A
Sat 03:00 PM  68.2°F  70°F  4 mph SW  4 mph  15 mph  0.00"  62%  61%  54°F  56°F  N/A

  1. Current weather data. No green row appears if the current weather data is also the high or low for the current day.
  2. High temperature for the current day.
  3. Low temperature for the current day.

The San Diego (City Height), California weather pages are a service of WeatherCurrents. City Heights is a San Diego community, located east of Balboa Park, near Interstate 15
Copyright ©Mon May 29 02:45:00 PDT 2017  WeatherCurrents. All rights reserved. - Submit questions and comments - Privacy Policy

This page automatically refreshes every 10 minutes.